sensor_id;sensor_type;location;lat;lon;timestamp;temperature;humidity
2463;DHT22;1243;54.298;10.172;2024-02-23T00:00:02;10.90;1.00
2463;DHT22;1243;54.298;10.172;2024-02-23T00:02:31;10.90;1.00
2463;DHT22;1243;54.298;10.172;2024-02-23T00:04:57;10.80;1.00
2463;DHT22;1243;54.298;10.172;2024-02-23T00:07:23;10.70;99.90
2463;DHT22;1243;54.298;10.172;2024-02-23T00:09:49;10.60;99.90
2463;DHT22;1243;54.298;10.172;2024-02-23T00:12:14;10.40;99.90
2463;DHT22;1243;54.298;10.172;2024-02-23T00:14:40;10.30;99.90
2463;DHT22;1243;54.298;10.172;2024-02-23T00:17:06;10.20;99.90
2463;DHT22;1243;54.298;10.172;2024-02-23T00:19:32;10.00;99.90
2463;DHT22;1243;54.298;10.172;2024-02-23T00:21:58;10.00;99.90
2463;DHT22;1243;54.298;10.172;2024-02-23T00:24:27;9.90;99.90
2463;DHT22;1243;54.298;10.172;2024-02-23T00:26:54;9.90;99.90
2463;DHT22;1243;54.298;10.172;2024-02-23T00:29:19;9.80;99.90
2463;DHT22;1243;54.298;10.172;2024-02-23T00:31:47;9.80;99.90
2463;DHT22;1243;54.298;10.172;2024-02-23T00:34:12;9.80;99.90
2463;DHT22;1243;54.298;10.172;2024-02-23T00:36:42;9.80;99.90
2463;DHT22;1243;54.298;10.172;2024-02-23T00:39:10;9.70;99.90
2463;DHT22;1243;54.298;10.172;2024-02-23T00:41:36;9.70;99.90
2463;DHT22;1243;54.298;10.172;2024-02-23T00:44:02;9.60;99.90
2463;DHT22;1243;54.298;10.172;2024-02-23T00:46:28;9.60;99.90
2463;DHT22;1243;54.298;10.172;2024-02-23T00:48:54;9.50;99.90
2463;DHT22;1243;54.298;10.172;2024-02-23T00:51:20;9.50;99.90
2463;DHT22;1243;54.298;10.172;2024-02-23T00:53:46;9.40;99.90
2463;DHT22;1243;54.298;10.172;2024-02-23T00:56:11;9.40;99.90
2463;DHT22;1243;54.298;10.172;2024-02-23T00:58:38;9.30;99.90
2463;DHT22;1243;54.298;10.172;2024-02-23T01:01:04;9.20;99.90
2463;DHT22;1243;54.298;10.172;2024-02-23T01:03:30;9.00;99.90
2463;DHT22;1243;54.298;10.172;2024-02-23T01:05:56;8.60;99.90
2463;DHT22;1243;54.298;10.172;2024-02-23T01:08:21;8.20;99.90
2463;DHT22;1243;54.298;10.172;2024-02-23T01:10:47;8.10;99.90
2463;DHT22;1243;54.298;10.172;2024-02-23T01:13:13;8.00;99.90
2463;DHT22;1243;54.298;10.172;2024-02-23T01:15:39;7.90;99.90
2463;DHT22;1243;54.298;10.172;2024-02-23T01:18:05;7.80;99.90
2463;DHT22;1243;54.298;10.172;2024-02-23T01:20:34;7.70;99.90
2463;DHT22;1243;54.298;10.172;2024-02-23T01:23:00;7.80;99.90
2463;DHT22;1243;54.298;10.172;2024-02-23T01:25:26;7.80;99.90
2463;DHT22;1243;54.298;10.172;2024-02-23T01:27:51;7.70;99.90
2463;DHT22;1243;54.298;10.172;2024-02-23T01:30:17;7.70;99.90
2463;DHT22;1243;54.298;10.172;2024-02-23T01:32:44;7.70;99.90
2463;DHT22;1243;54.298;10.172;2024-02-23T01:35:10;7.70;99.90
2463;DHT22;1243;54.298;10.172;2024-02-23T01:37:36;7.60;99.90
2463;DHT22;1243;54.298;10.172;2024-02-23T01:40:02;7.60;99.90
2463;DHT22;1243;54.298;10.172;2024-02-23T01:42:29;7.50;99.90
2463;DHT22;1243;54.298;10.172;2024-02-23T01:44:54;7.50;99.90
2463;DHT22;1243;54.298;10.172;2024-02-23T01:47:26;7.50;99.90
2463;DHT22;1243;54.298;10.172;2024-02-23T01:49:54;7.40;99.90
2463;DHT22;1243;54.298;10.172;2024-02-23T01:52:21;7.40;99.90
2463;DHT22;1243;54.298;10.172;2024-02-23T01:54:47;7.20;99.90
2463;DHT22;1243;54.298;10.172;2024-02-23T01:57:14;7.20;99.90
2463;DHT22;1243;54.298;10.172;2024-02-23T01:59:40;7.20;99.90
2463;DHT22;1243;54.298;10.172;2024-02-23T02:02:06;7.10;99.90
2463;DHT22;1243;54.298;10.172;2024-02-23T02:04:32;7.10;99.90
2463;DHT22;1243;54.298;10.172;2024-02-23T02:06:59;7.00;99.90
2463;DHT22;1243;54.298;10.172;2024-02-23T02:09:26;7.00;99.90
2463;DHT22;1243;54.298;10.172;2024-02-23T02:11:52;6.90;99.90
2463;DHT22;1243;54.298;10.172;2024-02-23T02:14:18;6.90;99.90
2463;DHT22;1243;54.298;10.172;2024-02-23T02:16:44;6.80;99.90
2463;DHT22;1243;54.298;10.172;2024-02-23T02:19:11;6.90;99.90
2463;DHT22;1243;54.298;10.172;2024-02-23T02:21:37;6.80;99.90
2463;DHT22;1243;54.298;10.172;2024-02-23T02:24:03;6.80;99.90
2463;DHT22;1243;54.298;10.172;2024-02-23T02:26:30;6.80;99.90
2463;DHT22;1243;54.298;10.172;2024-02-23T02:28:55;6.70;99.90
2463;DHT22;1243;54.298;10.172;2024-02-23T02:31:21;6.60;99.90
2463;DHT22;1243;54.298;10.172;2024-02-23T02:33:47;6.70;99.90
2463;DHT22;1243;54.298;10.172;2024-02-23T02:36:13;6.70;99.90
2463;DHT22;1243;54.298;10.172;2024-02-23T02:38:38;6.60;99.90
2463;DHT22;1243;54.298;10.172;2024-02-23T02:41:04;6.50;99.90
2463;DHT22;1243;54.298;10.172;2024-02-23T02:43:31;6.50;99.90
2463;DHT22;1243;54.298;10.172;2024-02-23T02:45:57;6.40;99.90
2463;DHT22;1243;54.298;10.172;2024-02-23T02:48:23;6.30;99.90
2463;DHT22;1243;54.298;10.172;2024-02-23T02:50:49;6.30;99.90
2463;DHT22;1243;54.298;10.172;2024-02-23T02:53:16;6.30;99.90
2463;DHT22;1243;54.298;10.172;2024-02-23T02:55:42;6.30;99.90
2463;DHT22;1243;54.298;10.172;2024-02-23T02:58:09;6.20;99.90
2463;DHT22;1243;54.298;10.172;2024-02-23T03:00:35;6.20;99.90
2463;DHT22;1243;54.298;10.172;2024-02-23T03:03:00;6.10;99.90
2463;DHT22;1243;54.298;10.172;2024-02-23T03:05:26;6.00;99.90
2463;DHT22;1243;54.298;10.172;2024-02-23T03:07:52;6.00;99.90
2463;DHT22;1243;54.298;10.172;2024-02-23T03:10:18;6.00;99.90
2463;DHT22;1243;54.298;10.172;2024-02-23T03:12:43;5.90;99.90
2463;DHT22;1243;54.298;10.172;2024-02-23T03:15:09;5.90;99.90
2463;DHT22;1243;54.298;10.172;2024-02-23T03:17:38;5.80;99.90
2463;DHT22;1243;54.298;10.172;2024-02-23T03:20:05;5.70;99.90
2463;DHT22;1243;54.298;10.172;2024-02-23T03:22:34;5.70;99.90
2463;DHT22;1243;54.298;10.172;2024-02-23T03:25:00;5.70;99.90
2463;DHT22;1243;54.298;10.172;2024-02-23T03:27:28;5.70;99.90
2463;DHT22;1243;54.298;10.172;2024-02-23T03:29:54;5.70;99.90
2463;DHT22;1243;54.298;10.172;2024-02-23T03:32:20;5.80;99.90
2463;DHT22;1243;54.298;10.172;2024-02-23T03:34:46;5.80;99.90
2463;DHT22;1243;54.298;10.172;2024-02-23T03:37:11;5.90;99.90
2463;DHT22;1243;54.298;10.172;2024-02-23T03:39:37;5.90;99.90
2463;DHT22;1243;54.298;10.172;2024-02-23T03:42:04;5.90;99.90
2463;DHT22;1243;54.298;10.172;2024-02-23T03:44:29;6.00;99.90
2463;DHT22;1243;54.298;10.172;2024-02-23T03:46:57;6.00;99.90
2463;DHT22;1243;54.298;10.172;2024-02-23T03:49:22;6.00;99.90
2463;DHT22;1243;54.298;10.172;2024-02-23T03:51:48;5.90;99.90
2463;DHT22;1243;54.298;10.172;2024-02-23T03:54:14;5.90;99.90
2463;DHT22;1243;54.298;10.172;2024-02-23T03:56:42;6.00;99.90
2463;DHT22;1243;54.298;10.172;2024-02-23T03:59:09;5.90;99.90
2463;DHT22;1243;54.298;10.172;2024-02-23T04:01:38;6.00;99.90
2463;DHT22;1243;54.298;10.172;2024-02-23T04:04:05;6.00;99.90
2463;DHT22;1243;54.298;10.172;2024-02-23T04:06:31;6.00;99.90
2463;DHT22;1243;54.298;10.172;2024-02-23T04:08:58;6.00;99.90
2463;DHT22;1243;54.298;10.172;2024-02-23T04:11:24;6.10;99.90
2463;DHT22;1243;54.298;10.172;2024-02-23T04:13:49;6.10;99.90
2463;DHT22;1243;54.298;10.172;2024-02-23T04:16:15;6.10;99.90
2463;DHT22;1243;54.298;10.172;2024-02-23T04:18:41;6.10;99.90
2463;DHT22;1243;54.298;10.172;2024-02-23T04:21:06;6.10;99.90
2463;DHT22;1243;54.298;10.172;2024-02-23T04:23:32;6.10;99.90
2463;DHT22;1243;54.298;10.172;2024-02-23T04:25:59;6.10;99.90
2463;DHT22;1243;54.298;10.172;2024-02-23T04:28:24;6.10;99.90
2463;DHT22;1243;54.298;10.172;2024-02-23T04:30:52;6.10;99.90
2463;DHT22;1243;54.298;10.172;2024-02-23T04:33:17;6.20;99.90
2463;DHT22;1243;54.298;10.172;2024-02-23T04:35:43;6.20;99.90
2463;DHT22;1243;54.298;10.172;2024-02-23T04:38:09;6.10;99.90
2463;DHT22;1243;54.298;10.172;2024-02-23T04:40:35;6.10;99.90
2463;DHT22;1243;54.298;10.172;2024-02-23T04:43:01;6.10;99.90
2463;DHT22;1243;54.298;10.172;2024-02-23T04:45:26;6.10;99.90
2463;DHT22;1243;54.298;10.172;2024-02-23T04:47:52;6.10;99.90
2463;DHT22;1243;54.298;10.172;2024-02-23T04:50:17;6.10;99.90
2463;DHT22;1243;54.298;10.172;2024-02-23T04:52:43;6.10;99.90
2463;DHT22;1243;54.298;10.172;2024-02-23T04:55:09;6.10;99.90
2463;DHT22;1243;54.298;10.172;2024-02-23T04:57:36;6.10;99.90
2463;DHT22;1243;54.298;10.172;2024-02-23T05:00:03;6.10;99.90
2463;DHT22;1243;54.298;10.172;2024-02-23T05:02:29;6.10;99.90
2463;DHT22;1243;54.298;10.172;2024-02-23T05:05:01;6.10;99.90
2463;DHT22;1243;54.298;10.172;2024-02-23T05:07:27;6.10;99.90
2463;DHT22;1243;54.298;10.172;2024-02-23T05:09:52;6.10;99.90
2463;DHT22;1243;54.298;10.172;2024-02-23T05:12:18;6.20;99.90
2463;DHT22;1243;54.298;10.172;2024-02-23T05:14:44;6.20;99.90
2463;DHT22;1243;54.298;10.172;2024-02-23T05:17:09;6.20;99.90
2463;DHT22;1243;54.298;10.172;2024-02-23T05:19:35;6.10;99.90
2463;DHT22;1243;54.298;10.172;2024-02-23T05:22:01;6.20;99.90
2463;DHT22;1243;54.298;10.172;2024-02-23T05:24:26;6.20;99.90
2463;DHT22;1243;54.298;10.172;2024-02-23T05:26:52;6.20;99.90
2463;DHT22;1243;54.298;10.172;2024-02-23T05:29:18;6.10;99.90
2463;DHT22;1243;54.298;10.172;2024-02-23T05:31:52;6.10;99.90
2463;DHT22;1243;54.298;10.172;2024-02-23T05:34:17;6.10;99.90
2463;DHT22;1243;54.298;10.172;2024-02-23T05:36:46;6.10;99.90
2463;DHT22;1243;54.298;10.172;2024-02-23T05:39:13;6.10;99.90
2463;DHT22;1243;54.298;10.172;2024-02-23T05:41:41;6.10;99.90
2463;DHT22;1243;54.298;10.172;2024-02-23T05:44:07;6.10;99.90
2463;DHT22;1243;54.298;10.172;2024-02-23T05:46:33;6.00;99.90
2463;DHT22;1243;54.298;10.172;2024-02-23T05:48:59;6.00;99.90
2463;DHT22;1243;54.298;10.172;2024-02-23T05:51:25;6.10;99.90
2463;DHT22;1243;54.298;10.172;2024-02-23T05:53:50;6.10;99.90
2463;DHT22;1243;54.298;10.172;2024-02-23T05:56:16;6.10;99.90
2463;DHT22;1243;54.298;10.172;2024-02-23T05:58:42;6.10;99.90
2463;DHT22;1243;54.298;10.172;2024-02-23T06:01:07;6.00;99.90
2463;DHT22;1243;54.298;10.172;2024-02-23T06:03:33;6.10;99.90
2463;DHT22;1243;54.298;10.172;2024-02-23T06:05:59;6.10;99.90
2463;DHT22;1243;54.298;10.172;2024-02-23T06:08:25;6.10;99.90
2463;DHT22;1243;54.298;10.172;2024-02-23T06:10:51;6.00;99.90
2463;DHT22;1243;54.298;10.172;2024-02-23T06:13:16;6.00;99.90
2463;DHT22;1243;54.298;10.172;2024-02-23T06:15:42;6.00;99.90
2463;DHT22;1243;54.298;10.172;2024-02-23T06:18:08;6.00;99.90
2463;DHT22;1243;54.298;10.172;2024-02-23T06:20:34;6.00;99.90
2463;DHT22;1243;54.298;10.172;2024-02-23T06:23:00;6.00;99.90
2463;DHT22;1243;54.298;10.172;2024-02-23T06:25:25;5.90;99.90
2463;DHT22;1243;54.298;10.172;2024-02-23T06:27:51;6.00;99.90
2463;DHT22;1243;54.298;10.172;2024-02-23T06:30:16;6.00;99.90
2463;DHT22;1243;54.298;10.172;2024-02-23T06:32:42;6.10;99.90
2463;DHT22;1243;54.298;10.172;2024-02-23T06:35:09;6.10;99.90
2463;DHT22;1243;54.298;10.172;2024-02-23T06:37:37;6.10;99.90
2463;DHT22;1243;54.298;10.172;2024-02-23T06:40:02;6.10;99.90
2463;DHT22;1243;54.298;10.172;2024-02-23T06:42:29;6.20;99.90
2463;DHT22;1243;54.298;10.172;2024-02-23T06:44:55;6.20;99.90
2463;DHT22;1243;54.298;10.172;2024-02-23T06:47:21;6.20;99.90
2463;DHT22;1243;54.298;10.172;2024-02-23T06:49:47;6.20;99.90
2463;DHT22;1243;54.298;10.172;2024-02-23T06:52:13;6.30;99.90
2463;DHT22;1243;54.298;10.172;2024-02-23T06:54:39;6.30;99.90
2463;DHT22;1243;54.298;10.172;2024-02-23T06:57:05;6.30;99.90
2463;DHT22;1243;54.298;10.172;2024-02-23T06:59:30;6.30;99.90
2463;DHT22;1243;54.298;10.172;2024-02-23T07:01:57;6.30;99.90
2463;DHT22;1243;54.298;10.172;2024-02-23T07:04:23;6.30;99.90
2463;DHT22;1243;54.298;10.172;2024-02-23T07:06:48;6.30;99.90
2463;DHT22;1243;54.298;10.172;2024-02-23T07:09:14;6.30;99.90
2463;DHT22;1243;54.298;10.172;2024-02-23T07:11:40;6.40;99.90
2463;DHT22;1243;54.298;10.172;2024-02-23T07:14:07;6.40;99.90
2463;DHT22;1243;54.298;10.172;2024-02-23T07:16:38;6.30;99.90
2463;DHT22;1243;54.298;10.172;2024-02-23T07:19:07;6.30;99.90
2463;DHT22;1243;54.298;10.172;2024-02-23T07:21:33;6.30;99.90
2463;DHT22;1243;54.298;10.172;2024-02-23T07:23:59;6.20;99.90
2463;DHT22;1243;54.298;10.172;2024-02-23T07:26:25;6.20;99.90
2463;DHT22;1243;54.298;10.172;2024-02-23T07:28:53;6.20;99.90
2463;DHT22;1243;54.298;10.172;2024-02-23T07:31:19;6.20;99.90
2463;DHT22;1243;54.298;10.172;2024-02-23T07:33:45;6.20;99.90
2463;DHT22;1243;54.298;10.172;2024-02-23T07:36:14;6.20;99.90
2463;DHT22;1243;54.298;10.172;2024-02-23T07:38:40;6.20;99.90
2463;DHT22;1243;54.298;10.172;2024-02-23T07:41:05;6.20;99.90
2463;DHT22;1243;54.298;10.172;2024-02-23T07:43:31;6.20;99.90
2463;DHT22;1243;54.298;10.172;2024-02-23T07:45:57;6.10;99.90
2463;DHT22;1243;54.298;10.172;2024-02-23T07:48:22;6.10;99.90
2463;DHT22;1243;54.298;10.172;2024-02-23T07:50:48;6.20;99.90
2463;DHT22;1243;54.298;10.172;2024-02-23T07:53:14;6.20;99.90
2463;DHT22;1243;54.298;10.172;2024-02-23T07:55:39;6.20;99.90
2463;DHT22;1243;54.298;10.172;2024-02-23T07:58:06;6.20;99.90
2463;DHT22;1243;54.298;10.172;2024-02-23T08:00:31;6.30;99.90
2463;DHT22;1243;54.298;10.172;2024-02-23T08:02:57;6.30;99.90
2463;DHT22;1243;54.298;10.172;2024-02-23T08:05:24;6.30;99.90
2463;DHT22;1243;54.298;10.172;2024-02-23T08:07:50;6.30;99.90
2463;DHT22;1243;54.298;10.172;2024-02-23T08:10:16;6.20;99.90
2463;DHT22;1243;54.298;10.172;2024-02-23T08:12:41;6.30;99.90
2463;DHT22;1243;54.298;10.172;2024-02-23T08:15:07;6.30;99.90
2463;DHT22;1243;54.298;10.172;2024-02-23T08:17:33;6.30;99.90
2463;DHT22;1243;54.298;10.172;2024-02-23T08:19:58;6.30;99.90
2463;DHT22;1243;54.298;10.172;2024-02-23T08:22:24;6.30;99.90
2463;DHT22;1243;54.298;10.172;2024-02-23T08:24:50;6.30;99.90
2463;DHT22;1243;54.298;10.172;2024-02-23T08:27:15;6.40;99.90
2463;DHT22;1243;54.298;10.172;2024-02-23T08:29:41;6.40;99.90
2463;DHT22;1243;54.298;10.172;2024-02-23T08:32:07;6.40;99.90
2463;DHT22;1243;54.298;10.172;2024-02-23T08:34:33;6.40;99.90
2463;DHT22;1243;54.298;10.172;2024-02-23T08:37:00;6.50;99.90
2463;DHT22;1243;54.298;10.172;2024-02-23T08:39:26;6.40;99.90
2463;DHT22;1243;54.298;10.172;2024-02-23T08:41:52;6.50;99.90
2463;DHT22;1243;54.298;10.172;2024-02-23T08:44:18;6.50;99.90
2463;DHT22;1243;54.298;10.172;2024-02-23T08:46:44;6.60;99.90
2463;DHT22;1243;54.298;10.172;2024-02-23T08:49:10;6.70;99.90
2463;DHT22;1243;54.298;10.172;2024-02-23T08:51:35;6.80;99.90
2463;DHT22;1243;54.298;10.172;2024-02-23T08:54:01;6.80;99.90
2463;DHT22;1243;54.298;10.172;2024-02-23T08:56:30;6.80;99.90
2463;DHT22;1243;54.298;10.172;2024-02-23T08:58:56;6.70;99.90
2463;DHT22;1243;54.298;10.172;2024-02-23T09:01:21;6.60;99.90
2463;DHT22;1243;54.298;10.172;2024-02-23T09:03:47;6.60;99.90
2463;DHT22;1243;54.298;10.172;2024-02-23T09:06:13;6.60;99.90
2463;DHT22;1243;54.298;10.172;2024-02-23T09:08:39;6.60;99.90
2463;DHT22;1243;54.298;10.172;2024-02-23T09:11:06;6.80;99.90
2463;DHT22;1243;54.298;10.172;2024-02-23T09:13:32;7.00;99.90
2463;DHT22;1243;54.298;10.172;2024-02-23T09:15:58;7.20;99.90
2463;DHT22;1243;54.298;10.172;2024-02-23T09:18:23;7.30;99.90
2463;DHT22;1243;54.298;10.172;2024-02-23T09:20:49;7.50;99.90
2463;DHT22;1243;54.298;10.172;2024-02-23T09:23:15;7.50;99.90
2463;DHT22;1243;54.298;10.172;2024-02-23T09:25:41;7.50;99.90
2463;DHT22;1243;54.298;10.172;2024-02-23T09:28:07;7.60;99.90
2463;DHT22;1243;54.298;10.172;2024-02-23T09:30:33;7.60;99.00
2463;DHT22;1243;54.298;10.172;2024-02-23T09:32:58;7.80;97.20
2463;DHT22;1243;54.298;10.172;2024-02-23T09:35:24;7.90;98.80
2463;DHT22;1243;54.298;10.172;2024-02-23T09:37:50;8.10;97.90
2463;DHT22;1243;54.298;10.172;2024-02-23T09:40:16;8.20;91.80
2463;DHT22;1243;54.298;10.172;2024-02-23T09:42:42;8.20;75.90
2463;DHT22;1243;54.298;10.172;2024-02-23T09:45:08;8.20;51.60
2463;DHT22;1243;54.298;10.172;2024-02-23T09:47:36;8.20;39.90
2463;DHT22;1243;54.298;10.172;2024-02-23T09:50:04;8.40;54.40
2463;DHT22;1243;54.298;10.172;2024-02-23T09:52:32;8.60;49.70
2463;DHT22;1243;54.298;10.172;2024-02-23T09:54:58;8.60;34.90
2463;DHT22;1243;54.298;10.172;2024-02-23T09:57:24;8.50;14.60
2463;DHT22;1243;54.298;10.172;2024-02-23T09:59:50;8.40;6.40
2463;DHT22;1243;54.298;10.172;2024-02-23T10:02:18;8.40;5.60
2463;DHT22;1243;54.298;10.172;2024-02-23T10:04:44;8.40;1.60
2463;DHT22;1243;54.298;10.172;2024-02-23T10:07:10;8.40;1.00
2463;DHT22;1243;54.298;10.172;2024-02-23T10:09:36;8.30;1.00
2463;DHT22;1243;54.298;10.172;2024-02-23T10:12:02;8.20;1.00
2463;DHT22;1243;54.298;10.172;2024-02-23T10:14:28;8.30;2.20
2463;DHT22;1243;54.298;10.172;2024-02-23T10:16:54;8.50;1.00
2463;DHT22;1243;54.298;10.172;2024-02-23T10:19:21;8.60;1.00
2463;DHT22;1243;54.298;10.172;2024-02-23T10:21:47;8.60;1.00
2463;DHT22;1243;54.298;10.172;2024-02-23T10:24:15;8.50;1.00
2463;DHT22;1243;54.298;10.172;2024-02-23T10:26:42;8.50;1.00
2463;DHT22;1243;54.298;10.172;2024-02-23T10:29:07;8.40;1.00
2463;DHT22;1243;54.298;10.172;2024-02-23T10:31:35;8.40;1.00
2463;DHT22;1243;54.298;10.172;2024-02-23T10:34:09;8.30;1.00
2463;DHT22;1243;54.298;10.172;2024-02-23T10:36:41;8.30;1.00
2463;DHT22;1243;54.298;10.172;2024-02-23T10:39:08;8.40;1.00
2463;DHT22;1243;54.298;10.172;2024-02-23T10:41:39;8.50;1.00
2463;DHT22;1243;54.298;10.172;2024-02-23T10:44:09;8.50;1.00
2463;DHT22;1243;54.298;10.172;2024-02-23T10:46:37;8.40;1.00
2463;DHT22;1243;54.298;10.172;2024-02-23T10:49:03;8.40;1.00
2463;DHT22;1243;54.298;10.172;2024-02-23T10:51:30;8.30;1.00
2463;DHT22;1243;54.298;10.172;2024-02-23T10:53:57;8.30;1.00
2463;DHT22;1243;54.298;10.172;2024-02-23T10:56:23;8.30;1.00
2463;DHT22;1243;54.298;10.172;2024-02-23T10:58:50;8.30;1.00
2463;DHT22;1243;54.298;10.172;2024-02-23T11:01:16;8.30;1.00
2463;DHT22;1243;54.298;10.172;2024-02-23T11:03:44;8.40;1.00
2463;DHT22;1243;54.298;10.172;2024-02-23T11:06:16;8.40;1.00
2463;DHT22;1243;54.298;10.172;2024-02-23T11:08:46;8.50;1.00
2463;DHT22;1243;54.298;10.172;2024-02-23T11:11:15;8.40;1.00
2463;DHT22;1243;54.298;10.172;2024-02-23T11:13:44;8.40;1.00
2463;DHT22;1243;54.298;10.172;2024-02-23T11:16:09;8.40;1.00
2463;DHT22;1243;54.298;10.172;2024-02-23T11:18:36;8.40;1.00
2463;DHT22;1243;54.298;10.172;2024-02-23T11:21:04;8.30;1.00
2463;DHT22;1243;54.298;10.172;2024-02-23T11:23:47;8.60;1.00
2463;DHT22;1243;54.298;10.172;2024-02-23T11:26:14;9.00;1.00
2463;DHT22;1243;54.298;10.172;2024-02-23T11:28:50;9.40;1.00
2463;DHT22;1243;54.298;10.172;2024-02-23T11:31:25;9.50;1.00
2463;DHT22;1243;54.298;10.172;2024-02-23T11:33:55;9.50;1.00
2463;DHT22;1243;54.298;10.172;2024-02-23T11:36:32;9.50;1.00
2463;DHT22;1243;54.298;10.172;2024-02-23T11:38:59;9.60;1.00
2463;DHT22;1243;54.298;10.172;2024-02-23T11:41:26;9.60;1.00
2463;DHT22;1243;54.298;10.172;2024-02-23T11:43:54;9.50;1.00
2463;DHT22;1243;54.298;10.172;2024-02-23T11:46:21;9.30;1.00
2463;DHT22;1243;54.298;10.172;2024-02-23T11:48:48;9.20;1.00
2463;DHT22;1243;54.298;10.172;2024-02-23T11:51:19;9.00;1.00
2463;DHT22;1243;54.298;10.172;2024-02-23T11:53:46;9.00;1.00
2463;DHT22;1243;54.298;10.172;2024-02-23T11:56:13;9.00;1.00
2463;DHT22;1243;54.298;10.172;2024-02-23T11:58:39;9.00;1.00
2463;DHT22;1243;54.298;10.172;2024-02-23T12:01:05;9.30;1.00
2463;DHT22;1243;54.298;10.172;2024-02-23T12:03:32;9.50;1.00
2463;DHT22;1243;54.298;10.172;2024-02-23T12:06:02;9.30;1.00
2463;DHT22;1243;54.298;10.172;2024-02-23T12:08:30;9.10;1.00
2463;DHT22;1243;54.298;10.172;2024-02-23T12:10:58;8.90;1.00
2463;DHT22;1243;54.298;10.172;2024-02-23T12:13:26;9.00;1.00
2463;DHT22;1243;54.298;10.172;2024-02-23T12:15:53;9.00;1.00
2463;DHT22;1243;54.298;10.172;2024-02-23T12:18:24;9.10;1.00
2463;DHT22;1243;54.298;10.172;2024-02-23T12:20:53;9.10;1.00
2463;DHT22;1243;54.298;10.172;2024-02-23T12:23:19;9.10;1.00
2463;DHT22;1243;54.298;10.172;2024-02-23T12:25:57;9.10;1.00
2463;DHT22;1243;54.298;10.172;2024-02-23T12:28:23;9.40;1.00
2463;DHT22;1243;54.298;10.172;2024-02-23T12:31:05;10.00;1.00
2463;DHT22;1243;54.298;10.172;2024-02-23T12:33:35;10.70;1.00
2463;DHT22;1243;54.298;10.172;2024-02-23T12:36:02;11.00;1.00
2463;DHT22;1243;54.298;10.172;2024-02-23T12:38:28;10.70;1.00
2463;DHT22;1243;54.298;10.172;2024-02-23T12:40:54;10.40;1.00
2463;DHT22;1243;54.298;10.172;2024-02-23T12:43:20;10.20;1.00
2463;DHT22;1243;54.298;10.172;2024-02-23T12:45:53;10.10;1.00
2463;DHT22;1243;54.298;10.172;2024-02-23T12:48:20;9.80;1.00
2463;DHT22;1243;54.298;10.172;2024-02-23T12:50:46;9.70;1.00
2463;DHT22;1243;54.298;10.172;2024-02-23T12:53:34;9.70;1.00
2463;DHT22;1243;54.298;10.172;2024-02-23T12:56:09;9.60;1.00
2463;DHT22;1243;54.298;10.172;2024-02-23T12:58:36;9.50;1.00
2463;DHT22;1243;54.298;10.172;2024-02-23T13:01:02;9.40;1.00
2463;DHT22;1243;54.298;10.172;2024-02-23T13:03:28;9.20;1.00
2463;DHT22;1243;54.298;10.172;2024-02-23T13:05:57;9.20;1.00
2463;DHT22;1243;54.298;10.172;2024-02-23T13:08:24;9.10;1.00
2463;DHT22;1243;54.298;10.172;2024-02-23T13:10:50;9.00;1.00
2463;DHT22;1243;54.298;10.172;2024-02-23T13:13:16;8.90;1.00
2463;DHT22;1243;54.298;10.172;2024-02-23T13:15:43;8.90;1.00
2463;DHT22;1243;54.298;10.172;2024-02-23T13:18:08;9.00;1.00
2463;DHT22;1243;54.298;10.172;2024-02-23T13:20:35;9.00;1.00
2463;DHT22;1243;54.298;10.172;2024-02-23T13:23:01;9.00;1.00
2463;DHT22;1243;54.298;10.172;2024-02-23T13:25:27;8.90;1.00
2463;DHT22;1243;54.298;10.172;2024-02-23T13:27:53;8.90;1.00
2463;DHT22;1243;54.298;10.172;2024-02-23T13:30:19;8.90;1.00
2463;DHT22;1243;54.298;10.172;2024-02-23T13:32:45;8.80;1.00
2463;DHT22;1243;54.298;10.172;2024-02-23T13:35:11;8.80;1.00
2463;DHT22;1243;54.298;10.172;2024-02-23T13:37:36;8.90;1.00
2463;DHT22;1243;54.298;10.172;2024-02-23T13:40:02;9.00;1.00
2463;DHT22;1243;54.298;10.172;2024-02-23T13:42:31;9.00;1.00
2463;DHT22;1243;54.298;10.172;2024-02-23T13:44:56;9.00;1.00
2463;DHT22;1243;54.298;10.172;2024-02-23T13:47:22;9.00;1.00
2463;DHT22;1243;54.298;10.172;2024-02-23T13:49:48;9.00;1.00
2463;DHT22;1243;54.298;10.172;2024-02-23T13:52:13;9.00;1.00
2463;DHT22;1243;54.298;10.172;2024-02-23T13:54:39;9.10;1.00
2463;DHT22;1243;54.298;10.172;2024-02-23T13:57:05;9.10;1.00
2463;DHT22;1243;54.298;10.172;2024-02-23T13:59:30;9.20;1.00
2463;DHT22;1243;54.298;10.172;2024-02-23T14:01:56;9.20;1.00
2463;DHT22;1243;54.298;10.172;2024-02-23T14:04:22;9.20;1.00
2463;DHT22;1243;54.298;10.172;2024-02-23T14:06:47;9.20;1.00
2463;DHT22;1243;54.298;10.172;2024-02-23T14:09:13;9.20;1.00
2463;DHT22;1243;54.298;10.172;2024-02-23T14:11:39;9.20;1.00
2463;DHT22;1243;54.298;10.172;2024-02-23T14:14:05;9.10;1.00
2463;DHT22;1243;54.298;10.172;2024-02-23T14:16:31;9.00;1.00
2463;DHT22;1243;54.298;10.172;2024-02-23T14:18:57;9.00;1.00
2463;DHT22;1243;54.298;10.172;2024-02-23T14:21:23;9.00;1.00
2463;DHT22;1243;54.298;10.172;2024-02-23T14:23:50;9.00;1.00
2463;DHT22;1243;54.298;10.172;2024-02-23T14:26:16;9.00;1.00
2463;DHT22;1243;54.298;10.172;2024-02-23T14:28:42;8.90;1.00
2463;DHT22;1243;54.298;10.172;2024-02-23T14:31:08;8.90;1.00
2463;DHT22;1243;54.298;10.172;2024-02-23T14:33:33;8.90;1.00
2463;DHT22;1243;54.298;10.172;2024-02-23T14:35:59;8.90;1.00
2463;DHT22;1243;54.298;10.172;2024-02-23T14:38:25;9.00;1.00
2463;DHT22;1243;54.298;10.172;2024-02-23T14:40:50;9.10;1.00
2463;DHT22;1243;54.298;10.172;2024-02-23T14:43:16;9.00;1.00
2463;DHT22;1243;54.298;10.172;2024-02-23T14:45:42;9.10;1.00
2463;DHT22;1243;54.298;10.172;2024-02-23T14:48:08;9.10;1.00
2463;DHT22;1243;54.298;10.172;2024-02-23T14:50:33;9.20;1.00
2463;DHT22;1243;54.298;10.172;2024-02-23T14:52:59;9.20;1.00
2463;DHT22;1243;54.298;10.172;2024-02-23T14:55:25;9.20;1.00
2463;DHT22;1243;54.298;10.172;2024-02-23T14:57:51;9.10;1.00
2463;DHT22;1243;54.298;10.172;2024-02-23T15:00:17;9.10;1.00
2463;DHT22;1243;54.298;10.172;2024-02-23T15:02:43;9.00;1.00
2463;DHT22;1243;54.298;10.172;2024-02-23T15:05:09;9.00;1.00
2463;DHT22;1243;54.298;10.172;2024-02-23T15:07:35;8.90;1.00
2463;DHT22;1243;54.298;10.172;2024-02-23T15:10:03;8.90;1.00
2463;DHT22;1243;54.298;10.172;2024-02-23T15:12:34;8.90;1.00
2463;DHT22;1243;54.298;10.172;2024-02-23T15:15:00;8.90;1.00
2463;DHT22;1243;54.298;10.172;2024-02-23T15:17:26;8.90;1.00
2463;DHT22;1243;54.298;10.172;2024-02-23T15:19:51;8.90;1.00
2463;DHT22;1243;54.298;10.172;2024-02-23T15:22:17;8.90;1.00
2463;DHT22;1243;54.298;10.172;2024-02-23T15:24:45;8.90;1.00
2463;DHT22;1243;54.298;10.172;2024-02-23T15:27:18;8.80;1.00
2463;DHT22;1243;54.298;10.172;2024-02-23T15:29:45;8.80;1.00
2463;DHT22;1243;54.298;10.172;2024-02-23T15:32:11;8.70;1.00
2463;DHT22;1243;54.298;10.172;2024-02-23T15:34:37;8.70;1.00
2463;DHT22;1243;54.298;10.172;2024-02-23T15:37:03;8.80;1.00
2463;DHT22;1243;54.298;10.172;2024-02-23T15:39:28;8.70;1.00
2463;DHT22;1243;54.298;10.172;2024-02-23T15:41:55;8.80;1.00
2463;DHT22;1243;54.298;10.172;2024-02-23T15:44:20;8.70;1.00
2463;DHT22;1243;54.298;10.172;2024-02-23T15:46:46;8.60;1.00
2463;DHT22;1243;54.298;10.172;2024-02-23T15:49:12;8.70;1.00
2463;DHT22;1243;54.298;10.172;2024-02-23T15:51:38;8.70;1.00
2463;DHT22;1243;54.298;10.172;2024-02-23T15:54:04;8.70;1.00
2463;DHT22;1243;54.298;10.172;2024-02-23T15:56:30;8.70;1.00
2463;DHT22;1243;54.298;10.172;2024-02-23T15:58:56;8.70;1.00
2463;DHT22;1243;54.298;10.172;2024-02-23T16:01:22;8.70;1.00